createdAt,value
2023-01-11T00:00:09.131Z,84.73
2023-01-11T00:02:46.209Z,84.38
2023-01-11T00:04:58.338Z,84.30
2023-01-11T00:07:10.094Z,84.30
2023-01-11T00:09:22.503Z,84.15
2023-01-11T00:11:34.291Z,84.42
2023-01-11T00:13:46.393Z,84.60
2023-01-11T00:15:58.165Z,84.88
2023-01-11T00:18:11.403Z,84.94
2023-01-11T00:20:23.888Z,84.95
2023-01-11T00:22:35.800Z,85.13
2023-01-11T00:24:47.386Z,85.47
2023-01-11T00:26:59.072Z,85.83
2023-01-11T00:29:10.865Z,85.72
2023-01-11T00:31:22.515Z,85.80
2023-01-11T00:33:34.959Z,85.87
2023-01-11T00:35:46.951Z,85.97
2023-01-11T00:37:58.841Z,85.88
2023-01-11T00:40:11.250Z,86.04
2023-01-11T00:42:42.293Z,86.29
2023-01-11T00:45:13.028Z,86.29
2023-01-11T00:47:44.062Z,86.34
2023-01-11T00:49:55.957Z,86.07
2023-01-11T00:52:11.109Z,86.31
2023-01-11T00:54:23.104Z,86.17
2023-01-11T00:56:36.035Z,86.17
2023-01-11T00:58:48.131Z,85.92
2023-01-11T01:01:06.466Z,86.16
2023-01-11T01:03:18.170Z,86.05
2023-01-11T01:05:30.262Z,85.58
2023-01-11T01:07:42.359Z,85.83
2023-01-11T01:09:54.370Z,85.94
2023-01-11T01:12:08.686Z,85.85
2023-01-11T01:14:28.781Z,85.79
2023-01-11T01:16:42.416Z,85.74
2023-01-11T01:18:57.297Z,85.67
2023-01-11T01:21:09.070Z,85.55
2023-01-11T01:23:20.759Z,85.31
2023-01-11T01:25:32.552Z,85.34
2023-01-11T01:27:45.058Z,85.24
2023-01-11T01:29:56.845Z,84.72
2023-01-11T01:32:08.947Z,84.89
2023-01-11T01:34:20.635Z,85.01
2023-01-11T01:36:33.761Z,84.80
2023-01-11T01:38:45.638Z,85.03
2023-01-11T01:40:57.469Z,84.99
2023-01-11T01:43:12.370Z,85.09
2023-01-11T01:45:27.731Z,84.95
2023-01-11T01:47:55.329Z,85.09
2023-01-11T01:50:13.467Z,85.04
2023-01-11T01:52:29.409Z,85.10
2023-01-11T01:54:47.229Z,85.03
2023-01-11T01:57:04.620Z,85.44
2023-01-11T01:59:20.186Z,84.96
2023-01-11T02:01:47.340Z,84.88
2023-01-11T02:03:59.851Z,85.09
2023-01-11T02:06:11.736Z,85.03
2023-01-11T02:08:34.995Z,85.11
2023-01-11T02:10:47.299Z,84.82
2023-01-11T02:13:05.855Z,84.73
2023-01-11T02:15:21.014Z,84.89
2023-01-11T02:17:33.009Z,84.55
2023-01-11T02:20:00.155Z,84.47
2023-01-11T02:23:01.101Z,84.56
2023-01-11T02:25:45.557Z,84.46
2023-01-11T02:28:17.884Z,84.65
2023-01-11T02:31:04.171Z,84.72
2023-01-11T02:33:23.147Z,84.86
2023-01-11T02:35:44.295Z,85.22
2023-01-11T02:38:09.191Z,85.36
2023-01-11T02:40:29.881Z,85.43
2023-01-11T02:43:12.235Z,85.48
2023-01-11T02:45:37.404Z,85.60
2023-01-11T02:48:28.721Z,85.61
2023-01-11T02:50:50.649Z,85.81
2023-01-11T02:53:08.173Z,85.84
2023-01-11T02:55:26.272Z,85.73
2023-01-11T02:57:40.252Z,85.62
2023-01-11T02:59:55.183Z,85.50
2023-01-11T03:02:06.984Z,85.51
2023-01-11T03:04:27.213Z,85.77
2023-01-11T03:06:39.221Z,85.65
2023-01-11T03:09:12.888Z,85.62
2023-01-11T03:12:06.765Z,85.65
2023-01-11T03:14:47.041Z,85.73
2023-01-11T03:17:13.558Z,85.94
2023-01-11T03:19:51.873Z,86.00
2023-01-11T03:22:07.959Z,86.24
2023-01-11T03:24:48.287Z,86.00
2023-01-11T03:27:20.822Z,86.62
2023-01-11T03:29:59.721Z,86.79
2023-01-11T03:32:25.132Z,86.56
2023-01-11T03:34:46.134Z,86.59
2023-01-11T03:37:12.978Z,86.72
2023-01-11T03:39:43.415Z,86.79
2023-01-11T03:42:00.038Z,86.72
2023-01-11T03:44:15.269Z,86.55
2023-01-11T03:46:31.377Z,86.90
2023-01-11T03:48:52.093Z,86.66
2023-01-11T03:51:08.466Z,86.31
2023-01-11T03:53:22.406Z,86.35
2023-01-11T03:55:39.818Z,86.75
2023-01-11T03:57:54.370Z,86.91
2023-01-11T04:00:08.913Z,86.82
2023-01-11T04:02:25.036Z,86.73
2023-01-11T04:04:37.363Z,86.51
2023-01-11T04:06:50.094Z,86.25
2023-01-11T04:09:01.800Z,86.06
2023-01-11T04:11:14.145Z,86.21
2023-01-11T04:13:26.341Z,85.89
2023-01-11T04:15:38.020Z,85.43
2023-01-11T04:17:49.708Z,85.41
2023-01-11T04:20:01.415Z,85.12
2023-01-11T04:22:13.186Z,85.09
2023-01-11T04:24:25.187Z,85.34
2023-01-11T04:26:37.592Z,85.56
2023-01-11T04:28:49.381Z,85.86
2023-01-11T04:31:01.062Z,85.96
2023-01-11T04:33:13.444Z,86.18
2023-01-11T04:35:26.084Z,85.88
2023-01-11T04:37:38.072Z,86.40
2023-01-11T04:39:49.973Z,86.42
2023-01-11T04:42:20.284Z,86.18
2023-01-11T04:44:32.286Z,86.61
2023-01-11T04:46:44.684Z,86.45
2023-01-11T04:48:56.576Z,86.86
2023-01-11T04:51:09.949Z,86.37
2023-01-11T04:53:22.000Z,86.60
2023-01-11T04:55:33.995Z,86.46
2023-01-11T04:57:46.917Z,86.56
2023-01-11T04:59:58.919Z,86.58
2023-01-11T05:02:10.608Z,86.21
2023-01-11T05:04:22.834Z,86.18
2023-01-11T05:06:34.718Z,85.93
2023-01-11T05:08:47.535Z,86.00
2023-01-11T05:11:02.152Z,85.80
2023-01-11T05:13:14.029Z,85.63
2023-01-11T05:15:25.836Z,85.69
2023-01-11T05:17:37.985Z,85.55
2023-01-11T05:19:49.832Z,85.14
2023-01-11T05:22:01.724Z,85.42
2023-01-11T05:24:15.769Z,85.19
2023-01-11T05:26:30.617Z,84.90
2023-01-11T05:28:42.518Z,84.87
2023-01-11T05:30:55.286Z,84.89
2023-01-11T05:33:07.220Z,84.55
2023-01-11T05:35:19.014Z,84.57
2023-01-11T05:37:31.011Z,84.79
2023-01-11T05:39:43.517Z,84.56
2023-01-11T05:41:55.620Z,84.58
2023-01-11T05:44:30.653Z,84.60
2023-01-11T05:46:44.358Z,84.28
2023-01-11T05:48:56.479Z,84.54
2023-01-11T05:51:09.321Z,84.31
2023-01-11T05:53:23.564Z,84.29
2023-01-11T05:55:35.432Z,84.30
2023-01-11T05:57:47.787Z,84.04
2023-01-11T05:59:59.700Z,84.02
2023-01-11T06:02:11.846Z,83.82
2023-01-11T06:04:23.922Z,84.03
2023-01-11T06:06:36.024Z,83.60
2023-01-11T06:08:48.662Z,83.73
2023-01-11T06:11:01.140Z,83.75
2023-01-11T06:13:28.213Z,83.33
2023-01-11T06:15:40.691Z,83.53
2023-01-11T06:17:52.686Z,83.43
2023-01-11T06:20:05.309Z,83.68
2023-01-11T06:22:17.084Z,83.34
2023-01-11T06:24:28.652Z,83.56
2023-01-11T06:26:40.671Z,83.19
2023-01-11T06:28:52.563Z,83.23
2023-01-11T06:31:05.627Z,83.19
2023-01-11T06:33:17.471Z,83.00
2023-01-11T06:35:29.305Z,83.02
2023-01-11T06:37:41.151Z,83.08
2023-01-11T06:39:53.244Z,83.06
2023-01-11T06:42:05.141Z,82.87
2023-01-11T06:44:16.930Z,82.70
2023-01-11T06:46:29.265Z,83.16
2023-01-11T06:48:41.228Z,82.66
2023-01-11T06:50:56.543Z,82.94
2023-01-11T06:53:09.113Z,82.59
2023-01-11T06:55:22.341Z,82.55
2023-01-11T06:57:34.333Z,82.79
2023-01-11T06:59:46.214Z,82.72
2023-01-11T07:01:59.082Z,82.49
2023-01-11T07:04:10.883Z,82.25
2023-01-11T07:06:22.811Z,82.23
2023-01-11T07:08:34.499Z,82.54
2023-01-11T07:10:46.909Z,82.17
2023-01-11T07:12:58.490Z,82.55
2023-01-11T07:15:11.411Z,82.22
2023-01-11T07:17:23.400Z,82.42
2023-01-11T07:19:35.192Z,82.23
2023-01-11T07:21:46.796Z,82.53
2023-01-11T07:23:58.574Z,82.62
2023-01-11T07:26:10.510Z,82.24
2023-01-11T07:28:22.763Z,82.53
2023-01-11T07:30:51.810Z,82.40
2023-01-11T07:33:10.405Z,81.98
2023-01-11T07:35:21.873Z,82.17
2023-01-11T07:37:34.369Z,82.06
2023-01-11T07:39:46.897Z,82.04
2023-01-11T07:42:17.874Z,82.13
2023-01-11T07:44:29.905Z,82.07
2023-01-11T07:46:42.104Z,82.23
2023-01-11T07:48:54.291Z,82.33
2023-01-11T07:51:10.771Z,82.00
2023-01-11T07:53:26.075Z,82.11
2023-01-11T07:55:39.947Z,82.00
2023-01-11T07:57:52.079Z,81.88
2023-01-11T08:00:04.204Z,81.77
2023-01-11T08:02:24.495Z,81.68
2023-01-11T08:04:36.668Z,81.72
2023-01-11T08:06:48.314Z,81.52
2023-01-11T08:09:00.261Z,81.42
2023-01-11T08:11:31.290Z,81.75
2023-01-11T08:14:02.340Z,81.49
2023-01-11T08:16:14.234Z,81.54
2023-01-11T08:18:26.219Z,81.60
2023-01-11T08:20:38.926Z,81.86
2023-01-11T08:22:52.652Z,81.77
2023-01-11T08:25:04.763Z,81.73
2023-01-11T08:27:16.632Z,81.85
2023-01-11T08:29:28.753Z,81.85
2023-01-11T08:31:43.515Z,82.05
2023-01-11T08:33:55.811Z,81.91
2023-01-11T08:36:10.519Z,81.71
2023-01-11T08:38:22.780Z,81.53
2023-01-11T08:40:36.103Z,81.33
2023-01-11T08:42:47.999Z,81.58
2023-01-11T08:44:59.992Z,81.28
2023-01-11T08:47:12.080Z,81.32
2023-01-11T08:49:23.887Z,80.95
2023-01-11T08:51:35.568Z,80.61
2023-01-11T08:53:47.653Z,80.43
2023-01-11T08:55:59.856Z,80.05
2023-01-11T08:58:12.055Z,79.80
2023-01-11T09:00:24.559Z,79.56
2023-01-11T09:02:36.204Z,79.11
2023-01-11T09:04:49.271Z,78.99
2023-01-11T09:07:02.388Z,79.30
2023-01-11T09:09:13.974Z,78.92
2023-01-11T09:11:44.521Z,78.81
2023-01-11T09:13:56.499Z,77.77
2023-01-11T09:16:08.163Z,78.48
2023-01-11T09:18:20.077Z,78.35
2023-01-11T09:20:31.972Z,77.89
2023-01-11T09:22:49.768Z,78.15
2023-01-11T09:25:04.356Z,77.46
2023-01-11T09:27:16.739Z,77.37
2023-01-11T09:29:30.876Z,77.64
2023-01-11T09:31:42.567Z,77.41
2023-01-11T09:33:55.713Z,77.22
2023-01-11T09:36:08.020Z,77.33
2023-01-11T09:38:20.113Z,77.01
2023-01-11T09:40:52.591Z,77.28
2023-01-11T09:43:08.171Z,77.05
2023-01-11T09:45:27.896Z,76.98
2023-01-11T09:48:03.719Z,76.41
2023-01-11T09:50:28.093Z,76.43
2023-01-11T09:52:43.824Z,75.83
2023-01-11T09:55:00.570Z,75.59
2023-01-11T09:57:31.714Z,75.73
2023-01-11T09:59:54.460Z,75.20
2023-01-11T10:02:26.057Z,74.82
2023-01-11T10:04:50.263Z,75.28
2023-01-11T10:07:25.959Z,75.08
2023-01-11T10:18:33.480Z,74.74
2023-01-11T10:18:58.299Z,74.86
2023-01-11T10:21:44.410Z,74.90
2023-01-11T10:24:03.959Z,74.89
2023-01-11T10:26:32.480Z,74.35
2023-01-11T10:29:07.569Z,74.58
2023-01-11T10:31:33.970Z,74.43
2023-01-11T10:34:06.210Z,74.28
2023-01-11T10:37:15.046Z,73.99
2023-01-11T10:40:10.813Z,73.99
2023-01-11T10:42:28.732Z,73.78
2023-01-11T10:44:56.102Z,74.00
2023-01-11T10:47:19.676Z,73.92
2023-01-11T10:49:35.933Z,73.61
2023-01-11T10:51:49.495Z,73.70
2023-01-11T10:54:18.182Z,73.27
2023-01-11T10:57:01.732Z,73.47
2023-01-11T10:59:41.360Z,73.67
2023-01-11T11:02:09.672Z,73.08
2023-01-11T11:04:40.163Z,72.80
2023-01-11T11:06:58.403Z,72.73
2023-01-11T11:09:32.520Z,73.13
2023-01-11T11:11:53.137Z,71.47
2023-01-11T11:14:23.340Z,71.86
2023-01-11T11:16:51.099Z,72.45
2023-01-11T11:19:03.213Z,71.84
2023-01-11T11:21:21.682Z,71.93
2023-01-11T11:23:35.281Z,71.82
2023-01-11T11:25:51.675Z,71.86
2023-01-11T11:28:15.555Z,71.53
2023-01-11T11:30:35.017Z,71.90
2023-01-11T11:32:56.228Z,72.39
2023-01-11T11:35:34.144Z,72.40
2023-01-11T11:37:46.231Z,72.52
2023-01-11T11:39:58.120Z,72.21
2023-01-11T11:42:16.259Z,72.80
2023-01-11T11:44:28.968Z,72.51
2023-01-11T11:46:40.863Z,72.58
2023-01-11T11:49:18.670Z,72.59
2023-01-11T11:51:31.577Z,72.59
2023-01-11T11:53:51.865Z,72.89
2023-01-11T11:56:23.428Z,72.62
2023-01-11T11:58:42.241Z,73.13
2023-01-11T12:00:54.355Z,72.83
2023-01-11T12:03:33.926Z,72.90
2023-01-11T12:06:05.465Z,72.97
2023-01-11T12:08:18.896Z,72.60
2023-01-11T12:10:32.426Z,72.61
2023-01-11T12:12:54.666Z,72.84
2023-01-11T12:15:15.778Z,72.49
2023-01-11T12:17:27.867Z,72.92
2023-01-11T12:19:45.337Z,73.07
2023-01-11T12:22:30.357Z,72.74
2023-01-11T12:24:42.259Z,72.63
2023-01-11T12:27:10.252Z,72.79
2023-01-11T12:29:48.425Z,72.97
2023-01-11T12:32:18.608Z,72.67
2023-01-11T12:34:56.757Z,72.68
2023-01-11T12:37:33.357Z,72.73
2023-01-11T12:40:21.576Z,72.95
2023-01-11T12:42:42.683Z,72.89
2023-01-11T12:45:09.934Z,73.12
2023-01-11T12:47:25.001Z,73.64
2023-01-11T12:49:51.341Z,73.85
2023-01-11T12:52:27.799Z,73.35
2023-01-11T12:55:15.316Z,72.82
2023-01-11T12:57:32.955Z,73.03
2023-01-11T12:59:53.857Z,73.13
2023-01-11T13:02:44.095Z,72.96
2023-01-11T13:05:33.318Z,73.29
2023-01-11T13:08:21.270Z,73.25
2023-01-11T13:10:52.752Z,73.73
2023-01-11T13:13:28.560Z,73.63
2023-01-11T13:16:22.591Z,74.04
2023-01-11T13:18:45.385Z,73.70
2023-01-11T13:21:07.029Z,73.77
2023-01-11T13:23:33.359Z,73.69
2023-01-11T13:25:49.223Z,73.41
2023-01-11T13:28:11.084Z,73.66
2023-01-11T13:30:26.974Z,73.87
2023-01-11T13:32:43.204Z,73.77
2023-01-11T13:35:19.596Z,74.00
2023-01-11T13:37:44.803Z,73.47
2023-01-11T13:40:10.417Z,73.06
2023-01-11T13:42:28.471Z,73.09
2023-01-11T13:44:46.486Z,72.58
2023-01-11T13:47:06.490Z,73.02
2023-01-11T13:49:49.392Z,73.03
2023-01-11T13:52:12.955Z,72.89
2023-01-11T13:54:49.834Z,72.86
2023-01-11T13:57:07.257Z,73.03
2023-01-11T13:59:29.591Z,72.87
2023-01-11T14:01:47.871Z,72.87
2023-01-11T14:04:07.457Z,72.80
2023-01-11T14:06:45.412Z,72.78
2023-01-11T14:09:32.016Z,72.80
2023-01-11T14:12:22.614Z,72.87
2023-01-11T14:14:54.690Z,73.05
2023-01-11T14:17:18.656Z,73.05
2023-01-11T14:19:41.514Z,73.10
2023-01-11T14:22:09.282Z,73.15
2023-01-11T14:24:22.802Z,73.05
2023-01-11T14:27:00.445Z,72.89
2023-01-11T14:29:25.803Z,72.45
2023-01-11T14:32:03.097Z,72.43
2023-01-11T14:34:39.521Z,72.14
2023-01-11T14:37:17.892Z,71.59
2023-01-11T14:39:48.814Z,71.96
2023-01-11T14:42:34.268Z,71.91
2023-01-11T14:45:11.822Z,71.59
2023-01-11T14:47:40.060Z,71.56
2023-01-11T14:50:19.090Z,71.67
2023-01-11T14:52:39.995Z,71.17
2023-01-11T14:54:55.368Z,71.74
2023-01-11T14:57:38.695Z,71.52
2023-01-11T14:59:50.331Z,71.70
2023-01-11T15:02:05.650Z,71.67
2023-01-11T15:04:22.854Z,71.54
2023-01-11T15:06:52.990Z,71.57
2023-01-11T15:09:54.034Z,71.65
2023-01-11T15:12:21.936Z,71.54
2023-01-11T15:14:34.104Z,71.77
2023-01-11T15:17:10.058Z,72.19
2023-01-11T15:19:35.781Z,72.29
2023-01-11T15:21:50.489Z,72.37
2023-01-11T15:24:02.630Z,72.67
2023-01-11T15:26:17.803Z,72.40
2023-01-11T15:28:36.964Z,72.37
2023-01-11T15:30:53.104Z,72.43
2023-01-11T15:33:19.614Z,72.57
2023-01-11T15:35:33.834Z,72.62
2023-01-11T15:38:05.204Z,72.46
2023-01-11T15:40:20.530Z,72.51
2023-01-11T15:42:48.732Z,72.19
2023-01-11T15:45:38.742Z,72.65
2023-01-11T15:48:01.669Z,72.89
2023-01-11T15:50:13.663Z,72.89
2023-01-11T15:52:51.119Z,72.93
2023-01-11T15:55:25.065Z,73.08
2023-01-11T15:58:05.241Z,73.05
2023-01-11T16:00:51.362Z,73.36
2023-01-11T16:03:49.525Z,73.25
2023-01-11T16:06:12.855Z,73.68
2023-01-11T16:08:35.200Z,73.29
2023-01-11T16:11:22.309Z,73.44
2023-01-11T16:13:56.220Z,73.44
2023-01-11T16:16:29.465Z,73.41
2023-01-11T16:18:47.154Z,73.45
2023-01-11T16:21:12.957Z,73.65
2023-01-11T16:23:24.894Z,74.04
2023-01-11T16:25:41.250Z,73.88
2023-01-11T16:27:56.032Z,73.72
2023-01-11T16:30:17.348Z,73.73
2023-01-11T16:32:34.211Z,73.84
2023-01-11T16:34:50.327Z,74.27
2023-01-11T16:37:02.155Z,74.17
2023-01-11T16:39:19.839Z,74.29
2023-01-11T16:41:45.315Z,74.20
2023-01-11T16:44:02.337Z,74.39
2023-01-11T16:46:46.417Z,74.40
2023-01-11T16:49:11.409Z,74.75
2023-01-11T16:51:24.225Z,74.81
2023-01-11T16:53:39.509Z,74.95
2023-01-11T16:55:56.946Z,75.07
2023-01-11T16:58:26.533Z,75.30
2023-01-11T17:00:39.945Z,75.28
2023-01-11T17:03:01.100Z,75.42
2023-01-11T17:05:20.049Z,75.34
2023-01-11T17:07:33.446Z,75.50
2023-01-11T17:09:45.450Z,75.61
2023-01-11T17:11:57.847Z,75.52
2023-01-11T17:14:35.443Z,75.91
2023-01-11T17:16:50.745Z,75.79
2023-01-11T17:19:09.518Z,75.84
2023-01-11T17:21:24.327Z,75.81
2023-01-11T17:23:39.432Z,75.90
2023-01-11T17:25:57.052Z,75.71
2023-01-11T17:28:18.237Z,76.06
2023-01-11T17:30:30.957Z,76.38
2023-01-11T17:32:46.280Z,76.57
2023-01-11T17:35:03.971Z,77.05
2023-01-11T17:37:18.668Z,77.55
2023-01-11T17:39:34.792Z,77.98
2023-01-11T17:42:07.050Z,78.33
2023-01-11T17:44:42.509Z,79.02
2023-01-11T17:46:54.810Z,79.60
2023-01-11T17:49:21.140Z,80.45
2023-01-11T17:51:34.881Z,80.96
2023-01-11T17:53:50.584Z,81.27
2023-01-11T17:56:07.951Z,82.26
2023-01-11T17:58:26.409Z,81.94
2023-01-11T18:00:39.038Z,82.80
2023-01-11T18:02:51.340Z,82.64
2023-01-11T18:05:04.089Z,83.16
2023-01-11T18:07:19.320Z,83.49
2023-01-11T18:09:36.131Z,83.69
2023-01-11T18:11:49.497Z,84.02
2023-01-11T18:14:05.698Z,84.16
2023-01-11T18:16:22.386Z,84.10
2023-01-11T18:18:54.775Z,84.77
2023-01-11T18:21:27.202Z,84.92
2023-01-11T18:23:38.889Z,84.80
2023-01-11T18:25:50.907Z,84.96
2023-01-11T18:28:11.890Z,85.78
2023-01-11T18:30:33.247Z,85.64
2023-01-11T18:32:45.193Z,85.35
2023-01-11T18:34:58.464Z,85.88
2023-01-11T18:37:11.750Z,85.83
2023-01-11T18:39:23.226Z,85.89
2023-01-11T18:41:54.175Z,85.85
2023-01-11T18:44:06.369Z,85.90
2023-01-11T18:46:18.336Z,86.06
2023-01-11T18:48:30.393Z,86.06
2023-01-11T18:50:45.116Z,86.73
2023-01-11T18:52:57.906Z,86.33
2023-01-11T18:55:17.807Z,86.34
2023-01-11T18:57:29.957Z,86.56
2023-01-11T18:59:42.039Z,86.58
2023-01-11T19:02:11.973Z,86.48
2023-01-11T19:04:28.529Z,86.51
2023-01-11T19:06:40.411Z,86.44
2023-01-11T19:08:52.517Z,86.35
2023-01-11T19:11:04.605Z,86.55
2023-01-11T19:13:19.260Z,86.60
2023-01-11T19:15:30.910Z,86.92
2023-01-11T19:17:43.776Z,86.94
2023-01-11T19:19:55.353Z,87.26
2023-01-11T19:22:08.378Z,87.36
2023-01-11T19:24:20.258Z,87.51
2023-01-11T19:26:32.254Z,87.39
2023-01-11T19:28:44.025Z,87.46
2023-01-11T19:30:55.872Z,87.36
2023-01-11T19:33:09.980Z,87.40
2023-01-11T19:35:23.769Z,87.37
2023-01-11T19:37:37.554Z,87.45
2023-01-11T19:39:49.344Z,87.23
2023-01-11T19:42:02.059Z,87.78
2023-01-11T19:44:13.945Z,87.56
2023-01-11T19:46:31.709Z,87.33
2023-01-11T19:48:44.590Z,87.51
2023-01-11T19:51:08.718Z,87.44
2023-01-11T19:53:20.523Z,87.78
2023-01-11T19:55:32.557Z,87.73
2023-01-11T19:57:45.171Z,87.63
2023-01-11T19:59:57.171Z,87.74
2023-01-11T20:02:13.759Z,87.70
2023-01-11T20:04:27.088Z,87.76
2023-01-11T20:06:50.247Z,87.75
2023-01-11T20:09:02.459Z,87.93
2023-01-11T20:11:15.964Z,87.91
2023-01-11T20:13:27.878Z,87.83
2023-01-11T20:15:39.812Z,88.04
2023-01-11T20:17:51.858Z,87.84
2023-01-11T20:20:05.733Z,87.80
2023-01-11T20:22:54.527Z,87.78
2023-01-11T20:25:14.614Z,87.96
2023-01-11T20:27:27.658Z,88.08
2023-01-11T20:29:39.725Z,88.06
2023-01-11T20:31:52.057Z,88.14
2023-01-11T20:34:11.944Z,88.10
2023-01-11T20:36:24.851Z,88.04
2023-01-11T20:38:36.753Z,88.12
2023-01-11T20:40:49.049Z,88.07
2023-01-11T20:43:00.857Z,87.98
2023-01-11T20:45:12.837Z,87.92
2023-01-11T20:47:25.361Z,88.12
2023-01-11T20:49:37.282Z,88.00
2023-01-11T20:51:49.127Z,87.95
2023-01-11T20:54:01.322Z,87.98
2023-01-11T20:56:14.136Z,88.04
2023-01-11T20:58:25.721Z,88.05
2023-01-11T21:00:37.715Z,88.09
2023-01-11T21:02:50.322Z,88.01
2023-01-11T21:05:05.445Z,88.04
2023-01-11T21:07:48.432Z,88.28
2023-01-11T21:10:05.235Z,88.50
2023-01-11T21:12:24.197Z,88.45
2023-01-11T21:14:40.922Z,88.29
2023-01-11T21:16:56.909Z,88.30
2023-01-11T21:19:13.491Z,88.28
2023-01-11T21:21:28.228Z,88.27
2023-01-11T21:23:40.535Z,88.35
2023-01-11T21:25:52.499Z,88.35
2023-01-11T21:28:04.431Z,88.36
2023-01-11T21:30:18.310Z,88.35
2023-01-11T21:32:29.993Z,88.21
2023-01-11T21:34:42.046Z,88.31
2023-01-11T21:36:54.120Z,88.44
2023-01-11T21:39:06.721Z,88.32
2023-01-11T21:41:44.229Z,88.28
2023-01-11T21:43:56.064Z,88.40
2023-01-11T21:46:08.438Z,88.56
2023-01-11T21:48:20.127Z,88.38
2023-01-11T21:50:31.816Z,88.33
2023-01-11T21:52:43.500Z,88.53
2023-01-11T21:54:55.392Z,88.50
2023-01-11T21:57:08.351Z,88.35
2023-01-11T21:59:21.032Z,88.33
2023-01-11T22:01:33.330Z,88.52
2023-01-11T22:03:50.380Z,88.50
2023-01-11T22:06:03.464Z,88.60
2023-01-11T22:08:15.758Z,88.59
2023-01-11T22:10:27.955Z,88.51
2023-01-11T22:12:40.052Z,88.65
2023-01-11T22:14:52.150Z,88.37
2023-01-11T22:17:04.623Z,88.51
2023-01-11T22:19:17.268Z,88.45
2023-01-11T22:21:29.365Z,88.58
2023-01-11T22:23:42.297Z,88.63
2023-01-11T22:25:54.007Z,88.54
2023-01-11T22:28:06.268Z,88.51
2023-01-11T22:30:18.469Z,88.52
2023-01-11T22:32:31.604Z,88.60
2023-01-11T22:34:42.983Z,88.65
2023-01-11T22:36:55.172Z,88.61
2023-01-11T22:39:07.267Z,88.56
2023-01-11T22:41:19.987Z,88.66
2023-01-11T22:43:32.176Z,88.54
2023-01-11T22:45:44.215Z,88.55
2023-01-11T22:47:59.242Z,88.62
2023-01-11T22:50:11.741Z,88.57
2023-01-11T22:52:23.642Z,88.52
2023-01-11T22:54:35.529Z,88.61
2023-01-11T22:56:47.951Z,88.65
2023-01-11T22:59:00.747Z,88.53
2023-01-11T23:01:17.148Z,88.65
2023-01-11T23:03:28.991Z,88.58
2023-01-11T23:05:45.755Z,88.72
2023-01-11T23:07:58.045Z,88.70
2023-01-11T23:10:10.245Z,88.71
2023-01-11T23:12:41.192Z,88.80
2023-01-11T23:14:53.805Z,88.76
2023-01-11T23:17:07.188Z,88.64
2023-01-11T23:19:20.650Z,88.87
2023-01-11T23:21:33.052Z,88.61
2023-01-11T23:23:44.948Z,88.87
2023-01-11T23:25:56.940Z,88.72
2023-01-11T23:28:08.524Z,88.77
2023-01-11T23:30:20.826Z,88.73
2023-01-11T23:32:34.155Z,88.78
2023-01-11T23:34:46.052Z,88.83
2023-01-11T23:36:58.143Z,88.75
2023-01-11T23:39:14.024Z,88.90
2023-01-11T23:41:45.391Z,88.79
2023-01-11T23:43:57.675Z,88.81
2023-01-11T23:46:28.407Z,88.86
2023-01-11T23:48:40.209Z,88.93
2023-01-11T23:50:51.887Z,88.99
2023-01-11T23:53:03.582Z,88.89
2023-01-11T23:55:15.163Z,88.97
2023-01-11T23:57:27.060Z,88.93
2023-01-11T23:59:39.460Z,88.94
